createdAt,value
2018-11-02T00:00:46.803Z,7.43
2018-11-02T00:03:15.580Z,8.23
2018-11-02T00:05:44.491Z,7.90
2018-11-02T00:08:13.434Z,8.17
2018-11-02T00:10:41.631Z,8.13
2018-11-02T00:13:09.995Z,9.17
2018-11-02T00:15:38.271Z,8.40
2018-11-02T00:18:06.987Z,8.67
2018-11-02T00:20:35.972Z,9.87
2018-11-02T00:23:06.715Z,9.40
2018-11-02T00:25:35.380Z,10.17
2018-11-02T00:28:03.834Z,8.07
2018-11-02T00:30:32.351Z,8.80
2018-11-02T00:33:00.653Z,9.10
2018-11-02T00:35:29.178Z,8.40
2018-11-02T00:37:57.387Z,8.80
2018-11-02T00:40:25.703Z,9.73
2018-11-02T00:42:54.043Z,8.10
2018-11-02T00:45:22.294Z,8.70
2018-11-02T00:47:51.105Z,9.23
2018-11-02T00:50:21.006Z,9.53
2018-11-02T00:52:49.507Z,9.40
2018-11-02T00:55:17.909Z,8.97
2018-11-02T00:57:46.711Z,8.87
2018-11-02T01:00:15.905Z,8.43
2018-11-02T01:02:45.387Z,8.90
2018-11-02T01:05:14.105Z,8.53
2018-11-02T01:07:42.901Z,8.13
2018-11-02T01:10:12.020Z,8.20
2018-11-02T01:12:40.250Z,8.40
2018-11-02T01:15:09.607Z,9.77
2018-11-02T01:17:38.140Z,8.80
2018-11-02T01:20:08.237Z,8.30
2018-11-02T01:22:36.471Z,8.20
2018-11-02T01:25:04.871Z,8.70
2018-11-02T01:27:33.111Z,7.77
2018-11-02T01:30:01.516Z,8.80
2018-11-02T01:32:29.769Z,8.80
2018-11-02T01:34:58.204Z,8.40
2018-11-02T01:37:26.598Z,8.73
2018-11-02T01:39:54.803Z,7.67
2018-11-02T01:42:24.078Z,9.27
2018-11-02T01:44:52.292Z,7.67
2018-11-02T01:47:21.742Z,7.80
2018-11-02T01:49:50.634Z,8.03
2018-11-02T01:52:19.109Z,9.13
2018-11-02T01:54:47.519Z,8.40
2018-11-02T01:57:15.810Z,8.53
2018-11-02T01:59:44.083Z,8.73
2018-11-02T02:02:12.364Z,9.00
2018-11-02T02:04:40.826Z,9.10
2018-11-02T02:07:09.225Z,8.20
2018-11-02T02:09:37.864Z,8.03
2018-11-02T02:12:06.474Z,8.50
2018-11-02T02:14:34.675Z,10.50
2018-11-02T02:17:03.414Z,9.30
2018-11-02T02:19:31.650Z,9.37
2018-11-02T02:21:59.887Z,9.00
2018-11-02T02:24:28.159Z,9.87
2018-11-02T02:26:56.352Z,9.40
2018-11-02T02:29:24.694Z,7.80
2018-11-02T02:31:54.614Z,8.30
2018-11-02T02:34:23.562Z,9.47
2018-11-02T02:36:52.455Z,9.63
2018-11-02T02:39:20.680Z,8.50
2018-11-02T02:41:48.911Z,8.33
2018-11-02T02:44:17.156Z,8.90
2018-11-02T02:46:46.110Z,9.10
2018-11-02T02:49:14.349Z,8.70
2018-11-02T02:51:42.589Z,8.93
2018-11-02T02:54:11.300Z,8.97
2018-11-02T02:56:39.528Z,8.80
2018-11-02T02:59:08.775Z,8.57
2018-11-02T03:01:37.213Z,8.60
2018-11-02T03:04:06.038Z,8.17
2018-11-02T03:06:34.268Z,8.50
2018-11-02T03:09:03.981Z,8.60
2018-11-02T03:11:32.201Z,8.10
2018-11-02T03:14:00.444Z,9.07
2018-11-02T03:16:28.803Z,8.40
2018-11-02T03:18:57.460Z,8.47
2018-11-02T03:21:26.285Z,8.53
2018-11-02T03:23:54.561Z,8.70
2018-11-02T03:26:22.787Z,8.67
2018-11-02T03:28:51.091Z,7.87
2018-11-02T03:31:19.354Z,8.07
2018-11-02T03:33:47.640Z,7.77
2018-11-02T03:36:16.200Z,8.60
2018-11-02T03:38:44.824Z,8.80
2018-11-02T03:41:13.043Z,8.70
2018-11-02T03:43:41.319Z,8.33
2018-11-02T03:46:10.038Z,8.83
2018-11-02T03:48:38.799Z,8.97
2018-11-02T03:51:07.112Z,9.30
2018-11-02T03:53:35.626Z,8.10
2018-11-02T03:56:03.863Z,8.20
2018-11-02T03:58:32.109Z,7.87
2018-11-02T04:01:00.605Z,7.60
2018-11-02T04:03:29.567Z,8.37
2018-11-02T04:05:57.796Z,9.30
2018-11-02T04:08:26.663Z,9.27
2018-11-02T04:10:54.907Z,8.73
2018-11-02T04:13:23.189Z,8.60
2018-11-02T04:15:51.722Z,9.47
2018-11-02T04:18:20.195Z,8.43
2018-11-02T04:20:48.472Z,8.30
2018-11-02T04:23:16.759Z,8.17
2018-11-02T04:25:45.075Z,7.93
2018-11-02T04:28:13.311Z,7.57
2018-11-02T04:30:42.275Z,8.37
2018-11-02T04:33:11.407Z,8.60
2018-11-02T04:35:39.726Z,9.33
2018-11-02T04:38:08.311Z,8.73
2018-11-02T04:40:36.519Z,8.93
2018-11-02T04:43:05.118Z,8.37
2018-11-02T04:45:38.489Z,8.67
2018-11-02T04:48:08.359Z,8.13
2018-11-02T04:50:36.706Z,10.27
2018-11-02T04:53:05.656Z,9.67
2018-11-02T04:55:34.002Z,9.80
2018-11-02T04:58:02.238Z,8.77
2018-11-02T05:00:30.918Z,8.60
2018-11-02T05:02:59.749Z,9.10
2018-11-02T05:05:28.207Z,9.00
2018-11-02T05:07:57.189Z,8.60
2018-11-02T05:10:25.497Z,8.27
2018-11-02T05:12:53.751Z,8.60
2018-11-02T05:15:21.963Z,9.13
2018-11-02T05:17:50.497Z,8.77
2018-11-02T05:20:19.296Z,8.40
2018-11-02T05:22:47.959Z,8.90
2018-11-02T05:25:16.211Z,8.60
2018-11-02T05:27:44.795Z,10.07
2018-11-02T05:30:13.061Z,9.30
2018-11-02T05:32:42.599Z,9.00
2018-11-02T05:35:10.890Z,8.73
2018-11-02T05:37:39.167Z,9.83
2018-11-02T05:40:07.944Z,9.47
2018-11-02T05:42:36.164Z,9.33
2018-11-02T05:45:05.198Z,9.20
2018-11-02T05:47:33.656Z,8.97
2018-11-02T05:50:02.582Z,9.00
2018-11-02T05:52:30.902Z,9.67
2018-11-02T05:54:59.385Z,9.33
2018-11-02T05:57:27.691Z,11.57
2018-11-02T05:59:55.999Z,9.23
2018-11-02T06:02:24.531Z,9.57
2018-11-02T06:04:53.603Z,9.17
2018-11-02T06:07:22.660Z,9.63
2018-11-02T06:09:51.727Z,8.90
2018-11-02T06:12:19.959Z,10.47
2018-11-02T06:14:49.084Z,9.67
2018-11-02T06:17:17.920Z,10.00
2018-11-02T06:19:46.355Z,9.43
2018-11-02T06:22:14.661Z,9.77
2018-11-02T06:24:42.890Z,9.90
2018-11-02T06:27:11.160Z,10.63
2018-11-02T06:29:39.444Z,8.93
2018-11-02T06:32:08.342Z,8.67
2018-11-02T06:34:36.608Z,9.57
2018-11-02T06:37:04.959Z,8.97
2018-11-02T06:39:33.537Z,8.80
2018-11-02T06:42:01.835Z,10.93
2018-11-02T06:44:30.169Z,11.17
2018-11-02T06:46:58.911Z,10.10
2018-11-02T06:49:27.451Z,9.80
2018-11-02T06:51:55.701Z,9.50
2018-11-02T06:54:24.141Z,9.30
2018-11-02T06:56:52.408Z,9.97
2018-11-02T06:59:21.637Z,9.83
2018-11-02T07:01:50.388Z,8.80
2018-11-02T07:04:18.902Z,10.13
2018-11-02T07:06:47.523Z,9.33
2018-11-02T07:09:16.549Z,8.73
2018-11-02T07:11:45.335Z,9.03
2018-11-02T07:14:13.562Z,8.97
2018-11-02T07:16:42.219Z,8.77
2018-11-02T07:19:10.438Z,9.33
2018-11-02T07:21:38.815Z,9.27
2018-11-02T07:24:07.099Z,11.97
2018-11-02T07:26:35.318Z,9.70
2018-11-02T07:29:04.227Z,9.40
2018-11-02T07:31:32.493Z,9.23
2018-11-02T07:34:00.766Z,8.83
2018-11-02T07:36:29.055Z,10.10
2018-11-02T07:38:58.058Z,8.30
2018-11-02T07:41:26.326Z,8.97
2018-11-02T07:43:55.894Z,9.13
2018-11-02T07:46:24.251Z,9.77
2018-11-02T07:48:52.463Z,9.43
2018-11-02T07:51:21.355Z,10.07
2018-11-02T07:53:50.028Z,9.60
2018-11-02T07:56:18.566Z,8.70
2018-11-02T07:58:47.383Z,9.13
2018-11-02T08:01:15.594Z,8.90
2018-11-02T08:03:44.017Z,10.00
2018-11-02T08:06:12.234Z,8.80
2018-11-02T08:08:42.582Z,9.33
2018-11-02T08:11:10.841Z,9.27
2018-11-02T08:13:39.059Z,9.37
2018-11-02T08:16:07.288Z,8.90
2018-11-02T08:18:35.702Z,8.67
2018-11-02T08:21:03.931Z,9.13
2018-11-02T08:23:32.943Z,9.47
2018-11-02T08:26:01.183Z,10.43
2018-11-02T08:28:29.391Z,9.23
2018-11-02T08:30:58.070Z,9.20
2018-11-02T08:33:26.547Z,10.37
2018-11-02T08:35:54.852Z,9.13
2018-11-02T08:38:23.120Z,9.10
2018-11-02T08:40:51.662Z,9.63
2018-11-02T08:43:19.874Z,9.27
2018-11-02T08:45:48.730Z,9.83
2018-11-02T08:48:17.324Z,9.80
2018-11-02T08:50:45.790Z,9.70
2018-11-02T08:53:14.364Z,9.20
2018-11-02T08:55:42.591Z,8.60
2018-11-02T08:58:11.280Z,8.30
2018-11-02T09:00:39.340Z,8.83
2018-11-02T09:03:07.913Z,8.73
2018-11-02T09:05:36.147Z,8.70
2018-11-02T09:08:04.629Z,9.17
2018-11-02T09:10:32.853Z,8.97
2018-11-02T09:13:01.087Z,8.63
2018-11-02T09:15:29.394Z,9.63
2018-11-02T09:20:33.268Z,9.27
2018-11-02T09:23:01.510Z,9.23
2018-11-02T09:25:29.780Z,9.80
2018-11-02T09:27:58.092Z,9.03
2018-11-02T09:30:27.180Z,9.20
2018-11-02T09:32:55.435Z,9.73
2018-11-02T09:35:23.968Z,9.90
2018-11-02T09:37:52.679Z,9.90
2018-11-02T09:40:21.570Z,9.87
2018-11-02T09:42:49.871Z,9.70
2018-11-02T09:45:18.025Z,9.00
2018-11-02T09:47:46.309Z,10.00
2018-11-02T09:50:14.647Z,10.00
2018-11-02T09:52:43.653Z,9.87
2018-11-02T09:55:13.411Z,11.10
2018-11-02T09:57:42.406Z,10.77
2018-11-02T10:00:11.546Z,11.33
2018-11-02T10:02:41.867Z,11.10
2018-11-02T10:05:11.860Z,11.50
2018-11-02T10:07:41.083Z,10.53
2018-11-02T10:10:10.439Z,10.60
2018-11-02T10:12:38.685Z,9.77
2018-11-02T10:15:10.613Z,11.50
2018-11-02T10:17:39.207Z,10.67
2018-11-02T10:20:07.894Z,11.00
2018-11-02T10:22:36.233Z,11.07
2018-11-02T10:25:04.576Z,10.27
2018-11-02T10:27:32.859Z,10.47
2018-11-02T10:30:01.475Z,10.87
2018-11-02T10:32:29.714Z,10.67
2018-11-02T10:34:58.710Z,10.93
2018-11-02T10:37:27.038Z,10.87
2018-11-02T10:39:55.639Z,11.00
2018-11-02T10:42:23.888Z,10.33
2018-11-02T10:44:52.235Z,10.77
2018-11-02T10:47:20.499Z,10.83
2018-11-02T10:49:48.728Z,10.70
2018-11-02T10:52:17.340Z,10.60
2018-11-02T10:54:45.990Z,11.73
2018-11-02T10:57:14.287Z,10.83
2018-11-02T10:59:42.526Z,11.20
2018-11-02T11:02:16.141Z,11.60
2018-11-02T11:04:44.712Z,10.77
2018-11-02T11:07:13.343Z,11.03
2018-11-02T11:09:41.616Z,11.13
2018-11-02T11:12:09.994Z,11.63
2018-11-02T11:14:38.660Z,11.80
2018-11-02T11:17:07.332Z,11.30
2018-11-02T11:19:35.995Z,10.97
2018-11-02T11:22:05.357Z,10.37
2018-11-02T11:24:33.627Z,11.53
2018-11-02T11:27:01.903Z,11.40
2018-11-02T11:29:31.052Z,11.10
2018-11-02T11:31:59.277Z,10.97
2018-11-02T11:34:28.027Z,11.20
2018-11-02T11:36:56.815Z,10.20
2018-11-02T11:39:25.131Z,9.95
2018-11-02T11:41:53.307Z,10.77
2018-11-02T11:44:21.846Z,10.40
2018-11-02T11:46:50.060Z,10.20
2018-11-02T11:49:18.437Z,10.93
2018-11-02T11:51:46.583Z,10.67
2018-11-02T11:54:15.518Z,9.73
2018-11-02T11:56:43.775Z,10.73
2018-11-02T11:59:12.043Z,10.77
2018-11-02T12:01:40.372Z,10.33
2018-11-02T12:04:08.881Z,9.93
2018-11-02T12:06:37.093Z,9.57
2018-11-02T12:09:06.526Z,9.20
2018-11-02T12:11:34.763Z,10.23
2018-11-02T12:14:03.055Z,9.40
2018-11-02T12:16:31.575Z,8.80
2018-11-02T12:19:00.179Z,8.77
2018-11-02T12:21:29.091Z,7.77
2018-11-02T12:23:57.847Z,8.30
2018-11-02T12:26:26.063Z,8.37
2018-11-02T12:28:54.787Z,8.17
2018-11-02T12:31:22.911Z,8.63
2018-11-02T12:33:51.186Z,8.00
2018-11-02T12:36:19.462Z,8.58
2018-11-02T12:38:47.726Z,8.07
2018-11-02T12:41:16.050Z,8.00
2018-11-02T12:43:44.632Z,7.53
2018-11-02T12:46:12.783Z,7.00
2018-11-02T12:48:41.428Z,7.07
2018-11-02T12:51:09.560Z,6.10
2018-11-02T12:53:38.115Z,5.17
2018-11-02T12:56:07.860Z,4.73
2018-11-02T12:58:36.087Z,4.60
2018-11-02T13:01:04.479Z,4.27
2018-11-02T13:03:33.127Z,4.13
2018-11-02T13:06:01.401Z,4.00
2018-11-02T13:08:30.753Z,4.20
2018-11-02T13:10:59.608Z,3.60
2018-11-02T13:13:28.014Z,3.50
2018-11-02T13:15:56.344Z,3.40
2018-11-02T13:18:25.099Z,3.70
2018-11-02T13:20:53.350Z,3.90
2018-11-02T13:23:21.576Z,4.28
2018-11-02T13:25:49.828Z,4.10
2018-11-02T13:28:18.084Z,3.83
2018-11-02T13:30:46.490Z,4.20
2018-11-02T13:33:14.651Z,4.87
2018-11-02T13:35:42.905Z,5.10
2018-11-02T13:38:11.100Z,5.30
2018-11-02T13:40:39.398Z,5.70
2018-11-02T13:43:07.822Z,5.53
2018-11-02T13:45:35.963Z,5.40
2018-11-02T13:48:04.282Z,4.80
2018-11-02T13:50:33.276Z,5.17
2018-11-02T13:53:01.808Z,5.20
2018-11-02T13:55:30.692Z,5.70
2018-11-02T13:57:58.943Z,5.10
2018-11-02T14:00:27.690Z,5.60
2018-11-02T14:02:56.577Z,5.67
2018-11-02T14:05:24.823Z,5.87
2018-11-02T14:07:53.608Z,6.03
2018-11-02T14:10:22.309Z,5.40
2018-11-02T14:12:50.519Z,6.13
2018-11-02T14:15:18.744Z,5.33
2018-11-02T14:17:47.760Z,5.90
2018-11-02T14:20:16.134Z,5.27
2018-11-02T14:22:44.397Z,5.13
2018-11-02T14:25:13.821Z,5.13
2018-11-02T14:27:42.082Z,5.23
2018-11-02T14:30:12.057Z,5.23
2018-11-02T14:32:40.295Z,4.87
2018-11-02T14:35:08.739Z,4.97
2018-11-02T14:37:37.143Z,4.83
2018-11-02T14:40:06.425Z,5.23
2018-11-02T14:42:34.922Z,5.17
2018-11-02T14:45:03.898Z,4.97
2018-11-02T14:47:32.183Z,5.43
2018-11-02T14:50:01.130Z,5.60
2018-11-02T14:52:29.401Z,5.10
2018-11-02T14:54:58.011Z,5.77
2018-11-02T14:57:26.297Z,6.00
2018-11-02T14:59:54.672Z,5.50
2018-11-02T15:02:22.873Z,5.23
2018-11-02T15:04:51.508Z,5.80
2018-11-02T15:07:20.357Z,5.60
2018-11-02T15:09:48.616Z,5.80
2018-11-02T15:12:16.870Z,5.20
2018-11-02T15:14:45.249Z,4.90
2018-11-02T15:17:14.770Z,5.07
2018-11-02T15:19:43.319Z,5.30
2018-11-02T15:22:11.547Z,5.30
2018-11-02T15:24:40.107Z,4.60
2018-11-02T15:27:08.375Z,4.87
2018-11-02T15:29:37.390Z,4.97
2018-11-02T15:32:07.111Z,4.70
2018-11-02T15:34:35.357Z,4.43
2018-11-02T15:37:03.629Z,4.20
2018-11-02T15:39:32.032Z,3.80
2018-11-02T15:42:00.308Z,4.17
2018-11-02T15:44:28.662Z,4.40
2018-11-02T15:46:57.362Z,4.63
2018-11-02T15:49:25.591Z,4.60
2018-11-02T15:51:53.815Z,4.03
2018-11-02T15:54:22.402Z,4.57
2018-11-02T15:56:50.784Z,4.30
2018-11-02T15:59:19.486Z,3.90
2018-11-02T16:01:47.791Z,4.13
2018-11-02T16:04:16.326Z,4.00
2018-11-02T16:06:44.629Z,4.57
2018-11-02T16:09:15.339Z,4.60
2018-11-02T16:11:44.110Z,4.90
2018-11-02T16:14:13.323Z,4.30
2018-11-02T16:16:42.351Z,4.13
2018-11-02T16:19:10.662Z,4.17
2018-11-02T16:21:39.267Z,4.00
2018-11-02T16:24:09.305Z,3.70
2018-11-02T16:26:37.562Z,3.67
2018-11-02T16:29:05.869Z,3.90
2018-11-02T16:31:34.136Z,4.27
2018-11-02T16:34:02.885Z,4.00
2018-11-02T16:36:31.168Z,4.07
2018-11-02T16:38:59.604Z,3.73
2018-11-02T16:41:27.856Z,3.73
2018-11-02T16:43:56.552Z,3.83
2018-11-02T16:46:25.281Z,4.00
2018-11-02T16:48:53.507Z,4.23
2018-11-02T16:51:21.755Z,4.00
2018-11-02T16:53:50.228Z,3.97
2018-11-02T16:56:18.439Z,4.10
2018-11-02T16:58:46.680Z,3.80
2018-11-02T17:01:15.364Z,4.03
2018-11-02T17:03:43.779Z,3.57
2018-11-02T17:06:12.158Z,3.73
2018-11-02T17:08:40.620Z,4.10
2018-11-02T17:11:08.922Z,4.27
2018-11-02T17:13:37.195Z,3.80
2018-11-02T17:16:05.855Z,4.33
2018-11-02T17:18:34.868Z,4.93
2018-11-02T17:21:03.763Z,4.60
2018-11-02T17:23:32.040Z,5.47
2018-11-02T17:26:00.321Z,5.50
2018-11-02T17:28:29.119Z,5.23
2018-11-02T17:30:57.375Z,5.40
2018-11-02T17:33:26.680Z,5.77
2018-11-02T17:35:56.360Z,5.60
2018-11-02T17:38:24.639Z,5.50
2018-11-02T17:40:52.854Z,5.80
2018-11-02T17:43:22.035Z,5.70
2018-11-02T17:45:50.886Z,5.53
2018-11-02T17:48:20.525Z,5.57
2018-11-02T17:50:49.294Z,4.90
2018-11-02T17:53:18.145Z,5.10
2018-11-02T17:55:47.007Z,4.90
2018-11-02T17:58:15.308Z,4.73
2018-11-02T18:00:43.593Z,4.50
2018-11-02T18:03:12.361Z,4.57
2018-11-02T18:05:40.627Z,4.50
2018-11-02T18:08:09.378Z,3.90
2018-11-02T18:10:37.674Z,4.00
2018-11-02T18:13:06.102Z,4.43
2018-11-02T18:15:34.936Z,4.70
2018-11-02T18:18:03.448Z,5.03
2018-11-02T18:20:31.927Z,4.57
2018-11-02T18:23:00.191Z,5.50
2018-11-02T18:25:28.451Z,5.83
2018-11-02T18:27:57.867Z,4.43
2018-11-02T18:30:26.648Z,5.13
2018-11-02T18:32:56.044Z,4.67
2018-11-02T18:35:24.459Z,5.20
2018-11-02T18:37:52.548Z,5.10
2018-11-02T18:40:21.083Z,5.00
2018-11-02T18:42:49.389Z,4.87
2018-11-02T18:45:17.722Z,5.40
2018-11-02T18:47:49.120Z,4.63
2018-11-02T18:50:18.524Z,5.07
2018-11-02T18:52:47.759Z,5.03
2018-11-02T18:55:16.291Z,4.70
2018-11-02T18:57:44.983Z,4.50
2018-11-02T19:00:13.398Z,4.90
2018-11-02T19:02:42.316Z,5.00
2018-11-02T19:05:13.251Z,4.50
2018-11-02T19:07:41.865Z,4.53
2018-11-02T19:10:10.839Z,4.77
2018-11-02T19:12:39.510Z,4.73
2018-11-02T19:15:10.590Z,4.40
2018-11-02T19:17:39.183Z,4.40
2018-11-02T19:20:08.311Z,4.40
2018-11-02T19:22:36.481Z,4.37
2018-11-02T19:25:05.682Z,4.50
2018-11-02T19:27:34.096Z,4.17
2018-11-02T19:30:02.307Z,5.00
2018-11-02T19:32:30.558Z,4.33
2018-11-02T19:34:59.262Z,4.33
2018-11-02T19:37:27.464Z,4.20
2018-11-02T19:39:55.667Z,4.80
2018-11-02T19:42:23.943Z,5.13
2018-11-02T19:44:52.186Z,4.97
2018-11-02T19:47:20.497Z,4.80
2018-11-02T19:49:48.774Z,4.83
2018-11-02T19:52:17.680Z,4.77
2018-11-02T19:54:46.532Z,4.93
2018-11-02T19:57:15.132Z,4.37
2018-11-02T19:59:43.433Z,4.73
2018-11-02T20:02:12.119Z,4.60
2018-11-02T20:04:40.557Z,4.60
2018-11-02T20:07:09.123Z,4.80
2018-11-02T20:09:37.882Z,5.27
2018-11-02T20:12:06.122Z,4.90
2018-11-02T20:14:34.501Z,4.60
2018-11-02T20:17:04.288Z,4.33
2018-11-02T20:19:32.494Z,4.57
2018-11-02T20:22:00.728Z,4.73
2018-11-02T20:24:29.203Z,4.67
2018-11-02T20:26:57.430Z,4.50
2018-11-02T20:29:25.663Z,4.40
2018-11-02T20:31:53.903Z,4.87
2018-11-02T20:34:22.552Z,4.80
2018-11-02T20:36:50.815Z,4.90
2018-11-02T20:39:19.249Z,4.90
2018-11-02T20:41:47.484Z,4.73
2018-11-02T20:44:15.754Z,4.93
2018-11-02T20:46:44.014Z,4.90
2018-11-02T20:49:12.259Z,5.20
2018-11-02T20:51:41.205Z,5.13
2018-11-02T20:54:09.947Z,4.60
2018-11-02T20:56:38.600Z,4.87
2018-11-02T20:59:06.845Z,4.70
2018-11-02T21:01:35.437Z,5.20
2018-11-02T21:04:03.982Z,5.30
2018-11-02T21:06:32.456Z,5.17
2018-11-02T21:09:01.452Z,5.10
2018-11-02T21:11:29.462Z,4.97
2018-11-02T21:13:57.975Z,5.50
2018-11-02T21:16:27.206Z,5.47
2018-11-02T21:18:55.638Z,5.50
2018-11-02T21:21:23.859Z,6.20
2018-11-02T21:23:52.084Z,6.47
2018-11-02T21:26:20.324Z,6.20
2018-11-02T21:28:48.794Z,6.50
2018-11-02T21:31:16.996Z,5.90
2018-11-02T21:33:45.568Z,5.97
2018-11-02T21:36:13.753Z,5.50
2018-11-02T21:38:42.401Z,5.73
2018-11-02T21:41:10.595Z,6.23
2018-11-02T21:43:38.866Z,5.33
2018-11-02T21:46:07.105Z,5.50
2018-11-02T21:48:35.452Z,5.97
2018-11-02T21:51:03.763Z,5.70
2018-11-02T21:53:32.497Z,5.37
2018-11-02T21:56:01.097Z,5.57
2018-11-02T21:58:29.956Z,4.80
2018-11-02T22:00:58.116Z,5.47
2018-11-02T22:03:26.782Z,5.80
2018-11-02T22:05:55.068Z,5.30
2018-11-02T22:08:23.890Z,5.30
2018-11-02T22:10:52.145Z,5.13
2018-11-02T22:13:20.438Z,5.43
2018-11-02T22:15:48.808Z,5.07
2018-11-02T22:18:17.744Z,5.20
2018-11-02T22:20:46.048Z,4.73
2018-11-02T22:23:14.285Z,5.20
2018-11-02T22:25:43.059Z,4.97
2018-11-02T22:28:11.290Z,5.23
2018-11-02T22:30:39.499Z,5.63
2018-11-02T22:33:07.775Z,4.83
2018-11-02T22:35:36.053Z,5.60
2018-11-02T22:38:04.330Z,5.30
2018-11-02T22:40:32.593Z,4.90
2018-11-02T22:43:00.851Z,5.97
2018-11-02T22:45:29.104Z,5.20
2018-11-02T22:48:02.660Z,4.77
2018-11-02T22:50:30.941Z,5.10
2018-11-02T22:52:59.795Z,4.80
2018-11-02T22:55:28.244Z,4.83
2018-11-02T22:57:56.463Z,5.07
2018-11-02T23:00:24.748Z,5.10
2018-11-02T23:02:53.483Z,5.70
2018-11-02T23:05:21.743Z,5.00
2018-11-02T23:07:50.388Z,4.60
2018-11-02T23:10:19.507Z,4.83
2018-11-02T23:12:47.745Z,5.47
2018-11-02T23:15:16.938Z,5.40
2018-11-02T23:17:45.655Z,5.47
2018-11-02T23:20:14.702Z,5.03
2018-11-02T23:22:42.923Z,4.80
2018-11-02T23:25:11.810Z,5.17
2018-11-02T23:27:41.058Z,4.47
2018-11-02T23:30:10.031Z,4.97
2018-11-02T23:32:38.270Z,5.10
2018-11-02T23:35:07.030Z,5.27
2018-11-02T23:37:35.488Z,4.60
2018-11-02T23:40:03.764Z,5.10
2018-11-02T23:42:32.345Z,5.23
2018-11-02T23:45:00.775Z,4.50
2018-11-02T23:47:28.975Z,5.20
2018-11-02T23:49:57.813Z,5.40
2018-11-02T23:52:27.339Z,4.47
2018-11-02T23:54:55.882Z,5.70
2018-11-02T23:57:24.283Z,5.03
2018-11-02T23:59:52.555Z,4.80
